createdAt,value
2022-12-18T00:01:35.172Z,-5.50
2022-12-18T00:03:37.340Z,-5.60
2022-12-18T00:11:46.267Z,-5.60
2022-12-18T00:13:48.526Z,-5.50
2022-12-18T00:15:50.396Z,-5.70
2022-12-18T00:17:52.069Z,-5.60
2022-12-18T00:19:55.665Z,-5.50
2022-12-18T00:21:59.146Z,-5.50
2022-12-18T00:24:00.947Z,-5.70
2022-12-18T00:26:03.502Z,-5.60
2022-12-18T00:28:05.229Z,-5.80
2022-12-18T00:30:07.180Z,-5.70
2022-12-18T00:32:08.939Z,-5.70
2022-12-18T00:34:12.858Z,-5.70
2022-12-18T00:36:16.139Z,-5.60
2022-12-18T00:38:17.862Z,-6.10
2022-12-18T00:40:19.488Z,-6.30
2022-12-18T00:42:42.177Z,-6.20
2022-12-18T00:44:43.925Z,-6.20
2022-12-18T00:46:46.365Z,-5.90
2022-12-18T00:48:48.242Z,-5.90
2022-12-18T00:50:50.628Z,-6.00
2022-12-18T00:52:52.498Z,-6.10
2022-12-18T00:54:54.230Z,-5.90
2022-12-18T00:56:56.236Z,-5.70
2022-12-18T00:58:58.051Z,-5.70
2022-12-18T01:00:59.796Z,-5.80
2022-12-18T01:03:01.696Z,-5.80
2022-12-18T01:05:03.515Z,-5.60
2022-12-18T01:07:05.157Z,-5.80
2022-12-18T01:09:06.855Z,-6.00
2022-12-18T01:11:09.818Z,-6.10
2022-12-18T01:13:11.431Z,-6.00
2022-12-18T01:15:13.822Z,-5.90
2022-12-18T01:17:16.528Z,-5.80
2022-12-18T01:19:18.271Z,-5.70
2022-12-18T01:21:19.997Z,-5.90
2022-12-18T01:23:21.672Z,-6.00
2022-12-18T01:25:23.369Z,-6.10
2022-12-18T01:27:24.997Z,-6.10
2022-12-18T01:29:26.623Z,-6.00
2022-12-18T01:31:29.240Z,-6.00
2022-12-18T01:33:30.923Z,-6.20
2022-12-18T01:35:32.996Z,-6.20
2022-12-18T01:37:34.950Z,-6.30
2022-12-18T01:39:36.585Z,-6.70
2022-12-18T01:41:56.809Z,-6.70
2022-12-18T01:43:58.905Z,-6.60
2022-12-18T01:46:00.662Z,-6.20
2022-12-18T01:48:09.631Z,-5.90
2022-12-18T01:50:12.834Z,-5.90
2022-12-18T01:52:14.551Z,-6.20
2022-12-18T01:54:16.222Z,-6.30
2022-12-18T01:56:18.815Z,-6.40
2022-12-18T01:58:21.675Z,-6.50
2022-12-18T02:00:23.790Z,-6.30
2022-12-18T02:02:27.736Z,-6.60
2022-12-18T02:04:29.474Z,-6.50
2022-12-18T02:06:35.754Z,-6.60
2022-12-18T02:08:44.809Z,-6.80
2022-12-18T02:11:05.522Z,-6.90
2022-12-18T02:13:15.711Z,-6.60
2022-12-18T02:15:20.220Z,-6.50
2022-12-18T02:17:29.885Z,-6.50
2022-12-18T02:19:31.522Z,-6.40
2022-12-18T02:21:33.102Z,-6.40
2022-12-18T02:23:34.731Z,-6.40
2022-12-18T02:25:55.311Z,-6.40
2022-12-18T02:27:58.793Z,-6.30
2022-12-18T02:30:01.263Z,-6.40
2022-12-18T02:32:04.235Z,-6.50
2022-12-18T02:34:07.154Z,-6.50
2022-12-18T02:36:09.567Z,-6.40
2022-12-18T02:38:12.091Z,-6.30
2022-12-18T02:40:15.114Z,-6.20
2022-12-18T02:42:17.652Z,-6.20
2022-12-18T02:44:19.304Z,-6.30
2022-12-18T02:46:33.369Z,-6.30
2022-12-18T02:48:35.968Z,-6.40
2022-12-18T02:50:46.309Z,-6.20
2022-12-18T02:53:00.155Z,-6.40
2022-12-18T02:55:20.516Z,-6.30
2022-12-18T02:57:26.027Z,-6.40
2022-12-18T02:59:35.265Z,-6.50
2022-12-18T03:01:37.023Z,-6.50
2022-12-18T03:03:50.689Z,-6.60
2022-12-18T03:05:58.831Z,-6.50
2022-12-18T03:08:00.405Z,-6.50
2022-12-18T03:10:02.137Z,-6.50
2022-12-18T03:12:24.267Z,-6.60
2022-12-18T03:14:27.679Z,-6.70
2022-12-18T03:16:30.081Z,-6.70
2022-12-18T03:18:36.351Z,-6.70
2022-12-18T03:20:39.843Z,-6.80
2022-12-18T03:22:43.991Z,-6.90
2022-12-18T03:24:47.177Z,-6.80
2022-12-18T03:26:51.763Z,-6.70
2022-12-18T03:28:55.393Z,-6.90
2022-12-18T03:30:59.201Z,-6.80
2022-12-18T03:33:08.841Z,-6.90
2022-12-18T03:35:11.491Z,-6.90
2022-12-18T03:37:13.193Z,-7.10
2022-12-18T03:39:15.231Z,-7.10
2022-12-18T03:41:20.607Z,-7.20
2022-12-18T03:43:25.265Z,-7.20
2022-12-18T03:45:26.891Z,-7.20
2022-12-18T03:47:39.362Z,-7.20
2022-12-18T03:49:56.584Z,-7.00
2022-12-18T03:52:01.853Z,-6.80
2022-12-18T03:54:04.882Z,-6.80
2022-12-18T03:56:07.573Z,-6.90
2022-12-18T03:58:10.028Z,-6.90
2022-12-18T04:00:14.114Z,-7.00
2022-12-18T04:02:17.601Z,-7.10
2022-12-18T04:04:20.032Z,-7.20
2022-12-18T04:06:22.089Z,-7.20
2022-12-18T04:08:24.735Z,-7.00
2022-12-18T04:10:26.417Z,-6.90
2022-12-18T04:12:29.538Z,-7.00
2022-12-18T04:14:36.508Z,-7.10
2022-12-18T04:16:40.180Z,-7.10
2022-12-18T04:18:41.764Z,-7.20
2022-12-18T04:20:43.544Z,-7.20
2022-12-18T04:22:45.503Z,-7.10
2022-12-18T04:24:47.873Z,-7.20
2022-12-18T04:26:49.504Z,-7.30
2022-12-18T04:28:51.124Z,-7.30
2022-12-18T04:30:53.221Z,-7.50
2022-12-18T04:32:54.977Z,-7.50
2022-12-18T04:34:56.661Z,-7.30
2022-12-18T04:36:58.333Z,-7.40
2022-12-18T04:39:00.130Z,-7.50
2022-12-18T04:41:01.792Z,-7.50
2022-12-18T04:43:03.641Z,-7.50
2022-12-18T04:45:05.885Z,-7.50
2022-12-18T04:47:08.463Z,-7.60
2022-12-18T04:49:11.609Z,-7.80
2022-12-18T04:51:13.455Z,-7.50
2022-12-18T04:53:15.052Z,-7.40
2022-12-18T04:55:16.934Z,-7.50
2022-12-18T04:57:21.640Z,-7.70
2022-12-18T04:59:23.365Z,-7.90
2022-12-18T05:01:29.445Z,-8.10
2022-12-18T05:03:34.736Z,-7.80
2022-12-18T05:05:36.592Z,-7.80
2022-12-18T05:07:38.288Z,-7.80
2022-12-18T05:09:39.873Z,-7.90
2022-12-18T05:11:41.482Z,-7.80
2022-12-18T05:13:44.333Z,-7.80
2022-12-18T05:15:52.078Z,-7.70
2022-12-18T05:17:53.706Z,-7.80
2022-12-18T05:19:55.299Z,-7.80
2022-12-18T05:21:56.952Z,-7.70
2022-12-18T05:23:58.560Z,-7.90
2022-12-18T05:26:01.442Z,-7.80
2022-12-18T05:28:03.052Z,-7.70
2022-12-18T05:30:04.823Z,-7.70
2022-12-18T05:32:06.412Z,-7.80
2022-12-18T05:34:08.054Z,-8.00
2022-12-18T05:36:10.145Z,-8.00
2022-12-18T05:38:11.855Z,-7.90
2022-12-18T05:40:13.875Z,-8.10
2022-12-18T05:42:15.515Z,-8.20
2022-12-18T05:44:17.123Z,-8.20
2022-12-18T05:46:19.168Z,-8.20
2022-12-18T05:48:21.420Z,-8.20
2022-12-18T05:50:23.104Z,-8.50
2022-12-18T05:52:24.743Z,-8.50
2022-12-18T05:54:28.100Z,-8.70
2022-12-18T05:56:29.723Z,-8.50
2022-12-18T05:58:31.790Z,-8.60
2022-12-18T06:00:34.259Z,-8.40
2022-12-18T06:02:36.105Z,-8.70
2022-12-18T06:04:37.904Z,-8.90
2022-12-18T06:06:39.512Z,-8.80
2022-12-18T06:08:46.045Z,-8.60
2022-12-18T06:10:52.630Z,-8.70
2022-12-18T06:12:54.324Z,-8.70
2022-12-18T06:14:55.945Z,-8.70
2022-12-18T06:16:57.637Z,-8.90
2022-12-18T06:18:59.962Z,-9.00
2022-12-18T06:21:02.862Z,-9.00
2022-12-18T06:23:04.546Z,-9.00
2022-12-18T06:25:06.901Z,-9.10
2022-12-18T06:27:09.496Z,-8.90
2022-12-18T06:29:11.163Z,-8.80
2022-12-18T06:31:13.238Z,-8.80
2022-12-18T06:33:15.384Z,-8.80
2022-12-18T06:35:17.041Z,-8.80
2022-12-18T06:37:18.765Z,-8.90
2022-12-18T06:39:20.423Z,-8.80
2022-12-18T06:41:22.308Z,-8.70
2022-12-18T06:43:23.938Z,-8.80
2022-12-18T06:45:25.688Z,-8.90
2022-12-18T06:47:27.382Z,-8.90
2022-12-18T06:49:30.760Z,-8.90
2022-12-18T06:51:32.576Z,-8.80
2022-12-18T06:53:34.639Z,-8.80
2022-12-18T06:55:36.277Z,-9.00
2022-12-18T06:57:38.382Z,-9.10
2022-12-18T06:59:40.016Z,-9.00
2022-12-18T07:01:41.855Z,-8.90
2022-12-18T07:03:44.572Z,-9.00
2022-12-18T07:05:46.625Z,-9.00
2022-12-18T07:07:48.290Z,-8.80
2022-12-18T07:09:53.155Z,-8.90
2022-12-18T07:11:54.873Z,-9.10
2022-12-18T07:13:56.591Z,-9.20
2022-12-18T07:16:15.062Z,-9.20
2022-12-18T07:18:19.028Z,-9.00
2022-12-18T07:20:20.626Z,-9.10
2022-12-18T07:22:22.336Z,-9.10
2022-12-18T07:24:23.978Z,-9.10
2022-12-18T07:26:25.815Z,-9.00
2022-12-18T07:28:27.381Z,-9.00
2022-12-18T07:30:29.065Z,-9.20
2022-12-18T07:32:31.153Z,-9.40
2022-12-18T07:34:32.797Z,-9.30
2022-12-18T07:36:34.443Z,-9.30
2022-12-18T07:38:36.140Z,-8.70
2022-12-18T07:40:37.789Z,-8.80
2022-12-18T07:42:39.834Z,-9.20
2022-12-18T07:44:41.569Z,-9.30
2022-12-18T07:46:43.158Z,-8.80
2022-12-18T07:48:46.216Z,-8.70
2022-12-18T07:50:51.909Z,-8.90
2022-12-18T07:52:53.559Z,-8.40
2022-12-18T07:54:55.240Z,-8.30
2022-12-18T07:56:56.840Z,-8.70
2022-12-18T07:58:59.599Z,-8.90
2022-12-18T08:01:08.361Z,-8.80
2022-12-18T08:03:10.034Z,-8.40
2022-12-18T08:05:11.771Z,-8.40
2022-12-18T08:07:13.807Z,-8.30
2022-12-18T08:09:15.419Z,-8.20
2022-12-18T08:11:17.048Z,-8.20
2022-12-18T08:13:18.745Z,-8.20
2022-12-18T08:15:20.439Z,-8.10
2022-12-18T08:17:22.231Z,-8.30
2022-12-18T08:19:23.843Z,-8.30
2022-12-18T08:21:28.223Z,-8.30
2022-12-18T08:23:29.907Z,-8.40
2022-12-18T08:25:31.495Z,-8.50
2022-12-18T08:27:33.213Z,-8.60
2022-12-18T08:29:35.790Z,-8.60
2022-12-18T08:31:37.501Z,-8.60
2022-12-18T08:33:40.381Z,-8.60
2022-12-18T08:35:45.977Z,-8.60
2022-12-18T08:37:47.952Z,-8.70
2022-12-18T08:39:49.625Z,-8.40
2022-12-18T08:42:10.574Z,-8.30
2022-12-18T08:44:30.895Z,-8.30
2022-12-18T08:46:34.950Z,-8.30
2022-12-18T08:48:36.788Z,-8.50
2022-12-18T08:50:38.628Z,-8.40
2022-12-18T08:52:40.277Z,-8.20
2022-12-18T08:54:41.940Z,-8.00
2022-12-18T08:56:43.636Z,-7.80
2022-12-18T08:58:45.264Z,-7.70
2022-12-18T09:00:46.876Z,-7.70
2022-12-18T09:02:48.757Z,-7.60
2022-12-18T09:04:56.927Z,-7.80
2022-12-18T09:06:59.129Z,-7.70
2022-12-18T09:09:00.773Z,-7.50
2022-12-18T09:11:03.256Z,-7.40
2022-12-18T09:13:04.928Z,-7.50
2022-12-18T09:15:06.991Z,-7.40
2022-12-18T09:17:08.864Z,-7.30
2022-12-18T09:19:11.119Z,-7.30
2022-12-18T09:21:14.137Z,-7.30
2022-12-18T09:23:15.839Z,-6.90
2022-12-18T09:25:17.804Z,-7.00
2022-12-18T09:27:19.756Z,-6.70
2022-12-18T09:29:21.603Z,-6.60
2022-12-18T09:31:24.460Z,-6.60
2022-12-18T09:33:26.431Z,-6.70
2022-12-18T09:35:28.815Z,-6.30
2022-12-18T09:37:30.503Z,-6.10
2022-12-18T09:39:32.239Z,-6.00
2022-12-18T09:41:36.961Z,-6.00
2022-12-18T09:43:44.315Z,-5.80
2022-12-18T09:45:49.901Z,-5.70
2022-12-18T09:47:52.359Z,-5.60
2022-12-18T09:49:56.068Z,-5.80
2022-12-18T09:51:57.686Z,-5.90
2022-12-18T09:54:21.253Z,-5.40
2022-12-18T09:56:23.963Z,-5.50
2022-12-18T09:58:25.694Z,-5.40
2022-12-18T10:00:27.378Z,-5.10
2022-12-18T10:02:31.680Z,-5.10
2022-12-18T10:04:33.726Z,-5.00
2022-12-18T10:06:39.268Z,-5.00
2022-12-18T10:08:49.318Z,-5.00
2022-12-18T10:10:53.332Z,-4.80
2022-12-18T10:13:04.573Z,-5.00
2022-12-18T10:15:13.559Z,-5.40
2022-12-18T10:17:18.202Z,-5.70
2022-12-18T10:19:22.909Z,-5.30
2022-12-18T10:21:41.252Z,-5.30
2022-12-18T10:23:47.990Z,-4.70
2022-12-18T10:25:54.411Z,-4.80
2022-12-18T10:27:58.711Z,-4.60
2022-12-18T10:30:02.083Z,-5.20
2022-12-18T10:32:03.835Z,-5.20
2022-12-18T10:34:08.588Z,-4.90
2022-12-18T10:36:10.582Z,-4.50
2022-12-18T10:38:18.249Z,-4.20
2022-12-18T10:40:22.601Z,-4.00
2022-12-18T10:42:24.750Z,-4.10
2022-12-18T10:44:27.598Z,-3.70
2022-12-18T10:46:29.380Z,-3.60
2022-12-18T10:48:34.011Z,-3.60
2022-12-18T10:51:09.012Z,-4.00
2022-12-18T10:53:03.937Z,-4.40
2022-12-18T10:55:06.302Z,-4.50
2022-12-18T10:57:17.681Z,-4.10
2022-12-18T10:59:19.324Z,-3.70
2022-12-18T11:01:21.753Z,-3.40
2022-12-18T11:03:40.623Z,-3.40
2022-12-18T11:05:42.440Z,-3.30
2022-12-18T11:07:55.148Z,-3.30
2022-12-18T11:10:02.829Z,-3.30
2022-12-18T11:12:07.215Z,-3.20
2022-12-18T11:14:19.412Z,-2.90
2022-12-18T11:16:21.733Z,-2.60
2022-12-18T11:18:27.075Z,-2.50
2022-12-18T11:20:32.704Z,-2.40
2022-12-18T11:22:36.124Z,-2.20
2022-12-18T11:24:37.870Z,-2.40
2022-12-18T11:26:40.549Z,-2.60
2022-12-18T11:28:45.393Z,-2.20
2022-12-18T11:30:47.868Z,-1.90
2022-12-18T11:32:55.299Z,-1.70
2022-12-18T11:35:00.666Z,-1.60
2022-12-18T11:37:04.090Z,-1.70
2022-12-18T11:39:13.209Z,-1.30
2022-12-18T11:41:21.187Z,-1.40
2022-12-18T11:43:26.707Z,-1.10
2022-12-18T11:45:29.953Z,-0.70
2022-12-18T11:47:50.254Z,-0.80
2022-12-18T11:49:52.891Z,-1.00
2022-12-18T11:52:10.055Z,-1.10
2022-12-18T11:54:15.643Z,-1.60
2022-12-18T11:56:36.047Z,-1.20
2022-12-18T11:58:46.565Z,-1.00
2022-12-18T12:00:53.452Z,-1.20
2022-12-18T12:03:13.958Z,-1.40
2022-12-18T12:05:36.901Z,-0.70
2022-12-18T12:08:02.154Z,-0.40
2022-12-18T12:10:24.160Z,-0.20
2022-12-18T12:12:48.695Z,-0.60
2022-12-18T12:15:00.314Z,-0.60
2022-12-18T12:17:09.329Z,-0.50
2022-12-18T12:19:14.131Z,-0.60
2022-12-18T12:21:42.306Z,0.00
2022-12-18T12:23:48.897Z,0.00
2022-12-18T12:25:53.565Z,0.20
2022-12-18T12:28:16.622Z,0.00
2022-12-18T12:30:31.125Z,-0.10
2022-12-18T12:32:32.760Z,0.00
2022-12-18T12:34:40.025Z,0.40
2022-12-18T12:36:54.122Z,0.00
2022-12-18T12:39:02.083Z,0.30
2022-12-18T12:41:06.310Z,0.10
2022-12-18T12:43:28.510Z,0.00
2022-12-18T12:45:34.104Z,-0.30
2022-12-18T12:47:39.295Z,-0.20
2022-12-18T12:49:41.200Z,0.10
2022-12-18T12:51:45.138Z,-0.10
2022-12-18T12:53:47.508Z,0.30
2022-12-18T12:55:49.829Z,0.50
2022-12-18T12:57:51.521Z,0.00
2022-12-18T13:00:00.159Z,-0.10
2022-12-18T13:02:02.162Z,-0.40
2022-12-18T13:04:04.107Z,-1.00
2022-12-18T13:06:14.669Z,-0.50
2022-12-18T13:08:25.341Z,-0.40
2022-12-18T13:10:32.313Z,-0.40
2022-12-18T13:12:53.096Z,-0.30
2022-12-18T13:14:55.000Z,0.00
2022-12-18T13:17:15.607Z,0.10
2022-12-18T13:19:26.362Z,0.20
2022-12-18T13:21:29.422Z,0.70
2022-12-18T13:23:33.003Z,0.90
2022-12-18T13:25:36.563Z,0.90
2022-12-18T13:27:41.231Z,0.50
2022-12-18T13:29:47.534Z,0.50
2022-12-18T13:31:49.778Z,0.20
2022-12-18T13:36:23.616Z,0.50
2022-12-18T13:38:34.169Z,0.60
2022-12-18T13:40:49.115Z,0.20
2022-12-18T13:43:12.565Z,0.40
2022-12-18T13:45:37.187Z,0.40
2022-12-18T13:47:45.994Z,0.50
2022-12-18T13:50:06.578Z,0.40
2022-12-18T13:52:25.794Z,0.60
2022-12-18T13:54:36.952Z,0.20
2022-12-18T13:56:45.314Z,0.00
2022-12-18T14:02:11.314Z,-0.20
2022-12-18T14:04:19.592Z,-0.60
2022-12-18T14:06:21.363Z,-0.80
2022-12-18T14:08:27.350Z,-0.50
2022-12-18T14:10:48.344Z,-0.30
2022-12-18T14:12:57.803Z,-0.40
2022-12-18T14:15:03.628Z,-0.10
2022-12-18T14:17:09.316Z,-0.30
2022-12-18T14:19:15.294Z,-0.10
2022-12-18T14:21:19.040Z,0.10
2022-12-18T14:23:31.294Z,0.00
2022-12-18T14:25:33.064Z,0.00
2022-12-18T14:27:38.447Z,0.10
2022-12-18T14:29:43.867Z,-0.10
2022-12-18T14:31:45.510Z,-0.30
2022-12-18T14:33:47.260Z,-0.50
2022-12-18T14:35:59.550Z,-0.40
2022-12-18T14:38:10.502Z,-0.30
2022-12-18T14:40:13.883Z,-0.30
2022-12-18T14:42:15.633Z,-0.40
2022-12-18T14:44:17.337Z,-0.40
2022-12-18T14:46:38.046Z,-0.50
2022-12-18T14:48:41.006Z,-0.50
2022-12-18T14:50:43.213Z,-0.60
2022-12-18T14:52:44.939Z,-0.70
2022-12-18T14:54:47.597Z,-0.70
2022-12-18T14:56:57.432Z,-0.80
2022-12-18T14:59:00.681Z,-1.00
2022-12-18T15:01:02.459Z,-1.10
2022-12-18T15:03:08.750Z,-1.00
2022-12-18T15:05:13.494Z,-1.00
2022-12-18T15:07:20.679Z,-1.10
2022-12-18T15:09:24.369Z,-1.30
2022-12-18T15:11:30.978Z,-1.60
2022-12-18T15:13:32.658Z,-1.70
2022-12-18T15:15:38.502Z,-1.80
2022-12-18T15:17:40.275Z,-1.90
2022-12-18T15:19:43.611Z,-1.80
2022-12-18T15:21:45.391Z,-1.80
2022-12-18T15:23:47.052Z,-1.90
2022-12-18T15:25:58.170Z,-2.10
2022-12-18T15:27:59.849Z,-2.10
2022-12-18T15:30:01.499Z,-2.10
2022-12-18T15:32:05.240Z,-2.20
2022-12-18T15:34:14.037Z,-2.20
2022-12-18T15:36:16.552Z,-2.10
2022-12-18T15:38:20.969Z,-2.10
2022-12-18T15:40:23.703Z,-2.00
2022-12-18T15:42:44.172Z,-2.00
2022-12-18T15:44:45.917Z,-2.30
2022-12-18T15:46:47.778Z,-2.40
2022-12-18T15:48:51.110Z,-2.50
2022-12-18T15:50:53.830Z,-2.60
2022-12-18T15:52:56.354Z,-2.60
2022-12-18T15:55:16.506Z,-2.60
2022-12-18T15:57:23.843Z,-2.70
2022-12-18T15:59:25.673Z,-2.70
2022-12-18T16:01:28.907Z,-2.70
2022-12-18T16:03:31.001Z,-2.80
2022-12-18T16:05:33.010Z,-2.80
2022-12-18T16:07:34.742Z,-2.80
2022-12-18T16:09:36.770Z,-2.80
2022-12-18T16:11:39.797Z,-2.90
2022-12-18T16:13:42.215Z,-3.00
2022-12-18T16:15:44.200Z,-3.00
2022-12-18T16:17:46.825Z,-3.00
2022-12-18T16:19:49.201Z,-3.00
2022-12-18T16:21:51.725Z,-3.00
2022-12-18T16:23:53.494Z,-3.00
2022-12-18T16:25:55.361Z,-3.10
2022-12-18T16:27:57.335Z,-3.10
2022-12-18T16:29:59.059Z,-3.10
2022-12-18T16:32:01.510Z,-3.10
2022-12-18T16:34:12.049Z,-3.10
2022-12-18T16:36:13.689Z,-3.10
2022-12-18T16:38:15.393Z,-3.00
2022-12-18T16:40:17.768Z,-3.00
2022-12-18T16:42:20.674Z,-3.00
2022-12-18T16:44:22.787Z,-3.00
2022-12-18T16:46:24.706Z,-3.00
2022-12-18T16:48:26.683Z,-3.00
2022-12-18T16:50:28.337Z,-3.00
2022-12-18T16:52:30.429Z,-3.00
2022-12-18T16:54:33.837Z,-3.00
2022-12-18T16:56:35.502Z,-3.10
2022-12-18T16:58:37.328Z,-3.00
2022-12-18T17:00:39.558Z,-3.10
2022-12-18T17:02:41.493Z,-3.10
2022-12-18T17:04:43.766Z,-3.10
2022-12-18T17:06:46.065Z,-3.00
2022-12-18T17:08:47.818Z,-3.00
2022-12-18T17:10:49.501Z,-3.00
2022-12-18T17:12:51.229Z,-3.00
2022-12-18T17:14:52.984Z,-3.00
2022-12-18T17:17:19.858Z,-3.10
2022-12-18T17:19:17.658Z,-3.00
2022-12-18T17:21:19.481Z,-3.00
2022-12-18T17:23:21.233Z,-3.00
2022-12-18T17:25:23.014Z,-3.00
2022-12-18T17:27:26.171Z,-3.00
2022-12-18T17:29:27.963Z,-3.00
2022-12-18T17:31:30.426Z,-3.00
2022-12-18T17:33:32.334Z,-2.90
2022-12-18T17:35:34.520Z,-2.90
2022-12-18T17:37:36.252Z,-2.90
2022-12-18T17:39:37.969Z,-2.90
2022-12-18T17:41:39.672Z,-2.90
2022-12-18T17:43:45.983Z,-2.70
2022-12-18T17:45:47.871Z,-2.60
2022-12-18T17:47:49.625Z,-2.60
2022-12-18T17:49:51.977Z,-2.50
2022-12-18T17:51:54.001Z,-2.60
2022-12-18T17:53:55.734Z,-2.50
2022-12-18T17:55:58.204Z,-2.60
2022-12-18T17:57:59.972Z,-2.50
2022-12-18T18:00:01.748Z,-2.30
2022-12-18T18:02:03.571Z,-2.40
2022-12-18T18:04:05.571Z,-2.40
2022-12-18T18:06:07.897Z,-2.30
2022-12-18T18:08:09.788Z,-2.30
2022-12-18T18:10:11.527Z,-2.30
2022-12-18T18:12:32.119Z,-2.40
2022-12-18T18:14:33.963Z,-2.50
2022-12-18T18:16:37.785Z,-2.50
2022-12-18T18:18:39.755Z,-2.30
2022-12-18T18:20:41.616Z,-2.20
2022-12-18T18:22:43.510Z,-2.20
2022-12-18T18:24:46.839Z,-2.30
2022-12-18T18:26:48.818Z,-2.40
2022-12-18T18:28:53.945Z,-2.30
2022-12-18T18:30:56.158Z,-2.40
2022-12-18T18:32:58.172Z,-2.50
2022-12-18T18:34:59.897Z,-2.40
2022-12-18T18:37:02.088Z,-2.50
2022-12-18T18:39:04.349Z,-2.50
2022-12-18T18:41:06.602Z,-2.40
2022-12-18T18:43:09.683Z,-2.40
2022-12-18T18:45:11.437Z,-2.30
2022-12-18T18:47:14.166Z,-2.30
2022-12-18T18:49:16.189Z,-2.30
2022-12-18T18:51:21.939Z,-2.10
2022-12-18T18:53:23.699Z,-2.20
2022-12-18T18:55:25.990Z,-2.20
2022-12-18T18:57:30.548Z,-2.20
2022-12-18T18:59:32.460Z,-2.20
2022-12-18T19:01:34.289Z,-2.10
2022-12-18T19:03:37.865Z,-2.20
2022-12-18T19:05:42.943Z,-2.30
2022-12-18T19:07:46.280Z,-2.40
2022-12-18T19:09:51.939Z,-2.30
2022-12-18T19:12:12.386Z,-2.20
2022-12-18T19:14:15.153Z,-2.20
2022-12-18T19:16:16.902Z,-2.20
2022-12-18T19:18:19.110Z,-2.20
2022-12-18T19:20:20.905Z,-2.20
2022-12-18T19:22:25.018Z,-2.20
2022-12-18T19:24:26.977Z,-2.20
2022-12-18T19:26:29.011Z,-2.20
2022-12-18T19:28:30.869Z,-2.20
2022-12-18T19:30:32.748Z,-2.10
2022-12-18T19:32:35.577Z,-2.30
2022-12-18T19:34:37.430Z,-2.20
2022-12-18T19:36:39.847Z,-2.20
2022-12-18T19:38:44.133Z,-2.30
2022-12-18T19:40:47.743Z,-2.50
2022-12-18T19:42:49.496Z,-2.40
2022-12-18T19:44:51.141Z,-2.40
2022-12-18T19:46:53.529Z,-2.30
2022-12-18T19:48:55.139Z,-2.30
2022-12-18T19:50:57.561Z,-2.30
2022-12-18T19:52:59.608Z,-2.40
2022-12-18T19:55:01.826Z,-2.40
2022-12-18T19:57:07.092Z,-2.50
2022-12-18T19:59:09.621Z,-2.50
2022-12-18T20:01:12.079Z,-2.40
2022-12-18T20:03:23.457Z,-2.30
2022-12-18T20:05:31.053Z,-2.30
2022-12-18T20:07:33.053Z,-2.40
2022-12-18T20:09:39.286Z,-2.50
2022-12-18T20:11:42.820Z,-2.30
2022-12-18T20:13:46.918Z,-2.20
2022-12-18T20:15:48.578Z,-2.10
2022-12-18T20:17:50.447Z,-2.10
2022-12-18T20:19:54.795Z,-2.20
2022-12-18T20:21:57.476Z,-2.20
2022-12-18T20:24:01.511Z,-2.30
2022-12-18T20:26:03.337Z,-2.20
2022-12-18T20:28:06.871Z,-2.30
2022-12-18T20:30:09.060Z,-2.30
2022-12-18T20:32:10.823Z,-2.40
2022-12-18T20:34:12.609Z,-2.30
2022-12-18T20:36:15.972Z,-2.40
2022-12-18T20:38:20.819Z,-2.30
2022-12-18T20:40:24.661Z,-2.30
2022-12-18T20:42:26.334Z,-2.40
2022-12-18T20:44:28.069Z,-2.40
2022-12-18T20:46:29.804Z,-2.40
2022-12-18T20:48:32.009Z,-2.30
2022-12-18T20:50:36.598Z,-2.30
2022-12-18T20:52:39.107Z,-2.20
2022-12-18T20:54:40.901Z,-2.20
2022-12-18T20:56:42.554Z,-2.20
2022-12-18T20:58:44.517Z,-2.30
2022-12-18T21:00:46.233Z,-2.30
2022-12-18T21:02:48.490Z,-2.40
2022-12-18T21:04:50.850Z,-2.30
2022-12-18T21:07:00.438Z,-2.30
2022-12-18T21:09:04.107Z,-2.40
2022-12-18T21:11:36.543Z,-2.50
2022-12-18T21:13:38.355Z,-2.60
2022-12-18T21:15:40.366Z,-2.60
2022-12-18T21:17:44.627Z,-2.50
2022-12-18T21:19:46.877Z,-2.50
2022-12-18T21:21:49.621Z,-2.50
2022-12-18T21:23:51.464Z,-2.60
2022-12-18T21:25:56.114Z,-2.70
2022-12-18T21:27:58.350Z,-2.60
2022-12-18T21:33:46.934Z,-2.50
2022-12-18T21:35:49.915Z,-2.60
2022-12-18T21:59:18.051Z,-2.40
2022-12-18T22:01:19.994Z,-2.40
2022-12-18T22:03:22.017Z,-2.50
2022-12-18T22:05:23.837Z,-2.50
2022-12-18T22:07:25.541Z,-2.50
2022-12-18T22:09:27.220Z,-2.50
2022-12-18T22:11:29.090Z,-2.40
2022-12-18T22:13:30.777Z,-2.40
2022-12-18T22:15:32.873Z,-2.40
2022-12-18T22:17:34.644Z,-2.40
2022-12-18T22:19:42.713Z,-2.40
2022-12-18T22:21:46.615Z,-2.50
2022-12-18T22:24:04.590Z,-2.50
2022-12-18T22:26:06.283Z,-2.50
2022-12-18T22:28:26.453Z,-2.60
2022-12-18T22:30:28.095Z,-2.50
2022-12-18T22:32:31.143Z,-2.50
2022-12-18T22:34:36.512Z,-2.50
2022-12-18T22:36:39.742Z,-2.40
2022-12-18T22:42:00.090Z,-2.40
2022-12-18T22:44:01.966Z,-2.30
2022-12-18T22:46:03.706Z,-2.30
2022-12-18T22:48:05.740Z,-2.40
2022-12-18T22:50:07.499Z,-2.30
2022-12-18T22:52:09.454Z,-2.30
2022-12-18T22:54:11.495Z,-2.40
2022-12-18T22:56:18.722Z,-2.30
2022-12-18T22:58:22.957Z,-2.30
2022-12-18T23:00:24.896Z,-2.20
2022-12-18T23:02:26.870Z,-2.00
2022-12-18T23:04:31.990Z,-2.10
2022-12-18T23:06:38.098Z,-2.00
2022-12-18T23:08:39.739Z,-2.00
2022-12-18T23:10:41.470Z,-1.90
2022-12-18T23:12:43.148Z,-1.90
2022-12-18T23:14:44.914Z,-2.00
2022-12-18T23:16:46.540Z,-1.90
2022-12-18T23:18:54.869Z,-1.80
2022-12-18T23:20:56.555Z,-2.00
2022-12-18T23:22:59.517Z,-1.90
2022-12-18T23:25:01.206Z,-1.90
2022-12-18T23:27:02.935Z,-1.90
2022-12-18T23:29:07.470Z,-1.80
2022-12-18T23:31:13.793Z,-1.80
2022-12-18T23:33:16.976Z,-1.80
2022-12-18T23:35:18.895Z,-1.80
2022-12-18T23:37:49.902Z,-1.60
2022-12-18T23:39:42.324Z,-1.60
2022-12-18T23:41:44.038Z,-1.70
2022-12-18T23:43:45.774Z,-1.70
2022-12-18T23:45:52.534Z,-1.70
2022-12-18T23:47:57.335Z,-1.70
2022-12-18T23:49:59.018Z,-1.70
2022-12-18T23:52:00.795Z,-1.70
2022-12-18T23:54:02.481Z,-1.70
2022-12-18T23:56:07.633Z,-1.70
2022-12-18T23:58:17.555Z,-1.70
